Time;durP1;ratioP1;P1;durP2;ratioP2;P2;SDS_P1;SDS_P2;PMS_P1;PMS_P2;Temp;Humidity;BMP_temperature;BMP_pressure;BME280_temperature;BME280_humidity;BME280_pressure;Samples;Min_cycle;Max_cycle;Signal;HPM_P1;HPM_P2
2023/05/17 00:00:37;;;;;;;13.30;3.10;;;;;;;10.26;100.00;102300.59;4994190;28;20197;-69
2023/05/17 00:03:02;;;;;;;14.57;3.70;;;;;;;10.13;100.00;102284.97;4992503;28;20220;-69
2023/05/17 00:05:28;;;;;;;11.23;3.17;;;;;;;10.04;100.00;102282.38;4991950;28;20606;-68
2023/05/17 00:07:53;;;;;;;12.73;2.73;;;;;;;10.35;100.00;102336.38;4986937;28;20268;-68
2023/05/17 00:10:18;;;;;;;12.40;2.90;;;;;;;10.28;100.00;102333.50;4995032;28;20212;-68
2023/05/17 00:12:45;;;;;;;11.57;3.37;;;;;;;10.39;100.00;102333.22;4995473;28;20189;-69
2023/05/17 00:15:10;;;;;;;6.27;2.80;;;;;;;10.45;100.00;102338.94;4992073;28;20649;-68
2023/05/17 00:17:36;;;;;;;9.90;3.00;;;;;;;10.39;100.00;102356.50;4990562;28;20539;-68
2023/05/17 00:20:03;;;;;;;9.13;2.53;;;;;;;10.52;100.00;102342.66;4991245;28;21002;-68
2023/05/17 00:22:28;;;;;;;6.57;2.00;;;;;;;10.58;100.00;102333.94;4995519;28;20448;-68
2023/05/17 00:24:54;;;;;;;7.30;2.30;;;;;;;10.15;100.00;102296.38;4994876;28;20986;-68
2023/05/17 00:27:19;;;;;;;9.93;2.23;;;;;;;10.23;100.00;102351.03;4992975;28;20189;-69
2023/05/17 00:29:45;;;;;;;8.70;2.20;;;;;;;10.46;100.00;102349.50;4993260;28;20212;-69
2023/05/17 00:32:10;;;;;;;7.37;2.47;;;;;;;10.39;100.00;102340.41;4996355;28;20197;-68
2023/05/17 00:34:35;;;;;;;8.63;2.47;;;;;;;10.41;100.00;102333.03;4994276;28;20674;-69
2023/05/17 00:37:01;;;;;;;8.60;2.40;;;;;;;10.33;100.00;102315.09;4997062;28;20187;-70
2023/05/17 00:39:26;;;;;;;15.70;2.83;;;;;;;10.32;100.00;102352.78;4991343;28;21028;-69
2023/05/17 00:41:52;;;;;;;8.80;2.47;;;;;;;10.42;100.00;102350.00;4990848;28;20276;-69
2023/05/17 00:44:17;;;;;;;6.87;2.03;;;;;;;9.74;100.00;102218.41;4985852;28;20217;-69
2023/05/17 00:46:43;;;;;;;4.67;1.73;;;;;;;10.35;100.00;102355.97;4992558;28;20201;-69
2023/05/17 00:49:08;;;;;;;9.73;2.80;;;;;;;10.52;100.00;102362.25;4991323;28;20689;-69
2023/05/17 00:51:34;;;;;;;8.57;2.37;;;;;;;10.18;100.00;102316.63;4997099;28;20193;-69
2023/05/17 00:54:01;;;;;;;7.80;2.90;;;;;;;10.14;100.00;102269.72;4997550;28;20201;-69
2023/05/17 00:56:26;;;;;;;11.50;2.20;;;;;;;10.24;100.00;102304.44;4999751;28;20436;-70
2023/05/17 00:58:52;;;;;;;8.07;2.00;;;;;;;10.16;100.00;102291.84;4996079;28;20447;-69
2023/05/17 01:01:18;;;;;;;11.43;2.80;;;;;;;10.37;100.00;102337.06;4992012;28;20185;-70
2023/05/17 01:03:44;;;;;;;8.67;2.57;;;;;;;10.24;100.00;102352.69;4999006;28;20476;-69
2023/05/17 01:06:10;;;;;;;9.30;2.37;;;;;;;10.37;100.00;102363.88;4995870;28;20471;-70
2023/05/17 01:08:35;;;;;;;13.63;2.67;;;;;;;10.28;100.00;102363.00;4999287;28;20425;-69
2023/05/17 01:11:24;;;;;;;9.60;2.30;;;;;;;10.24;100.00;102360.75;4999697;28;20197;-70
2023/05/17 01:14:07;;;;;;;9.57;1.77;;;;;;;10.36;100.00;102384.50;4995819;28;20217;-69
2023/05/17 01:16:39;;;;;;;7.03;2.10;;;;;;;10.29;100.00;102359.28;4995243;28;20543;-67
2023/05/17 01:19:14;;;;;;;8.70;2.33;;;;;;;10.40;100.00;102359.03;4994810;28;20913;-67
2023/05/17 01:22:09;;;;;;;8.07;2.13;;;;;;;9.73;100.00;102283.72;4998586;28;20436;-67
2023/05/17 01:24:59;;;;;;;8.23;1.90;;;;;;;10.22;100.00;102368.13;4996094;28;20456;-68
2023/05/17 01:27:27;;;;;;;11.27;1.90;;;;;;;10.18;100.00;102370.25;4999222;28;20440;-68
2023/05/17 01:29:55;;;;;;;8.07;2.10;;;;;;;9.63;100.00;102274.09;4993705;28;20526;-67
2023/05/17 01:32:21;;;;;;;11.73;2.60;;;;;;;10.07;100.00;102363.34;4997274;28;20451;-67
2023/05/17 01:34:46;;;;;;;10.47;2.43;;;;;;;9.73;100.00;102325.75;5000391;28;20452;-67
2023/05/17 01:37:12;;;;;;;6.03;2.17;;;;;;;9.91;100.00;102382.00;4998367;28;20244;-67
2023/05/17 01:39:37;;;;;;;7.00;2.20;;;;;;;9.56;100.00;102332.84;4996883;28;20182;-68
2023/05/17 01:42:15;;;;;;;8.23;2.60;;;;;;;10.03;100.00;102385.25;4998292;28;20239;-67
2023/05/17 01:44:50;;;;;;;6.90;2.10;;;;;;;9.89;100.00;102382.16;4997910;28;20221;-67
2023/05/17 01:47:23;;;;;;;5.80;1.57;;;;;;;9.85;100.00;102370.06;4993255;28;20452;-67
2023/05/17 01:49:52;;;;;;;6.60;1.93;;;;;;;10.07;100.00;102384.78;4995539;28;20566;-67
2023/05/17 01:52:27;;;;;;;7.20;2.03;;;;;;;10.09;100.00;102365.84;4998647;28;20439;-67
2023/05/17 01:55:13;;;;;;;8.87;2.13;;;;;;;9.04;100.00;102245.22;4998410;28;20468;-68
2023/05/17 01:57:43;;;;;;;7.00;2.60;;;;;;;9.77;100.00;102370.00;4997164;28;20444;-67
2023/05/17 02:00:11;;;;;;;6.27;1.33;;;;;;;9.48;100.00;102336.28;4993077;28;20994;-67
2023/05/17 02:02:36;;;;;;;11.37;1.90;;;;;;;10.13;100.00;102389.53;4996648;28;20433;-67
2023/05/17 02:05:02;;;;;;;6.27;2.10;;;;;;;10.14;100.00;102391.19;4996749;28;20463;-68
2023/05/17 02:07:27;;;;;;;9.87;2.30;;;;;;;9.76;100.00;102362.97;4997758;28;20291;-68
2023/05/17 02:09:53;;;;;;;11.60;2.30;;;;;;;9.41;100.00;102294.22;4999065;28;20217;-68
2023/05/17 02:12:18;;;;;;;10.17;2.20;;;;;;;9.92;100.00;102381.00;4997531;28;20192;-69
2023/05/17 02:14:44;;;;;;;6.70;1.90;;;;;;;9.12;100.00;102281.09;4998028;28;20208;-68
2023/05/17 02:17:09;;;;;;;3.80;1.60;;;;;;;9.76;100.00;102394.28;4994787;28;20180;-68
2023/05/17 02:19:34;;;;;;;9.63;1.87;;;;;;;9.98;100.00;102395.59;4994761;28;20192;-69
2023/05/17 02:22:00;;;;;;;11.53;2.60;;;;;;;9.56;100.00;102390.94;4994322;28;20193;-69
2023/05/17 02:24:25;;;;;;;11.43;2.33;;;;;;;9.78;100.00;102403.00;4992667;28;20307;-69
2023/05/17 02:26:51;;;;;;;6.23;2.30;;;;;;;9.68;100.00;102411.97;4989106;28;20186;-69
2023/05/17 02:29:16;;;;;;;9.70;2.20;;;;;;;9.81;100.00;102389.31;4989990;28;20697;-69
2023/05/17 02:31:42;;;;;;;8.40;1.90;;;;;;;9.59;100.00;102412.06;4990633;28;20666;-69
2023/05/17 02:34:07;;;;;;;8.30;1.90;;;;;;;8.73;100.00;102295.59;4991697;28;20225;-69
2023/05/17 02:36:32;;;;;;;8.60;2.63;;;;;;;9.44;100.00;102415.28;4989106;28;20205;-68
2023/05/17 02:38:58;;;;;;;3.53;1.30;;;;;;;9.77;100.00;102420.06;4990893;28;20200;-69
2023/05/17 02:41:23;;;;;;;11.00;1.80;;;;;;;9.38;100.00;102365.00;4988900;28;20201;-69
2023/05/17 02:43:49;;;;;;;7.60;1.93;;;;;;;9.62;100.00;102425.13;4988764;28;20224;-69
2023/05/17 02:46:15;;;;;;;4.30;1.37;;;;;;;8.58;100.00;102291.75;5000890;23;20661;-75
2023/05/17 02:48:40;;;;;;;8.07;1.70;;;;;;;8.08;100.00;102193.25;4999682;28;20180;-76
2023/05/17 02:51:06;;;;;;;8.87;1.97;;;;;;;8.25;100.00;102229.88;4997768;28;20255;-78
2023/05/17 02:53:31;;;;;;;5.00;1.50;;;;;;;7.48;100.00;102113.53;4996877;28;20575;-77
2023/05/17 02:55:57;;;;;;;6.03;1.67;;;;;;;8.70;100.00;102287.88;5000867;28;20212;-76
2023/05/17 02:58:25;;;;;;;6.67;1.80;;;;;;;8.73;100.00;102300.94;5001416;28;20646;-75
2023/05/17 03:00:51;;;;;;;5.60;1.57;;;;;;;8.52;100.00;102287.84;4998265;28;20655;-77
2023/05/17 03:03:17;;;;;;;8.20;1.83;;;;;;;7.05;100.00;102055.41;4998734;28;20450;-74
2023/05/17 03:05:42;;;;;;;6.93;1.80;;;;;;;8.63;100.00;102246.69;4998876;28;20689;-77
2023/05/17 03:08:08;;;;;;;5.70;1.70;;;;;;;7.58;100.00;102145.53;5000350;28;20201;-76
2023/05/17 03:10:34;;;;;;;4.00;1.50;;;;;;;8.97;100.00;102320.94;4995266;28;20471;-77
2023/05/17 03:12:59;;;;;;;6.60;1.57;;;;;;;7.91;100.00;102210.91;4998479;28;20280;-75
2023/05/17 03:15:28;;;;;;;5.23;1.47;;;;;;;9.54;100.00;102457.19;4996916;28;20856;-76
2023/05/17 03:17:54;;;;;;;5.50;1.93;;;;;;;8.60;100.00;102281.75;4998778;28;20444;-75
2023/05/17 03:20:20;;;;;;;4.73;1.47;;;;;;;8.75;100.00;102323.03;5000650;28;20509;-76
2023/05/17 03:22:45;;;;;;;8.37;2.07;;;;;;;8.71;100.00;102315.50;4995174;28;21003;-76
2023/05/17 03:25:10;;;;;;;4.67;1.50;;;;;;;9.49;100.00;102447.81;4996175;28;20208;-76
2023/05/17 03:27:36;;;;;;;5.93;2.40;;;;;;;7.01;100.00;102031.69;5000559;28;20182;-77
2023/05/17 03:30:01;;;;;;;8.50;1.57;;;;;;;7.42;100.00;102144.34;5000742;28;20217;-75
2023/05/17 03:32:27;;;;;;;6.17;1.57;;;;;;;7.72;100.00;102178.94;5002735;28;20264;-76
2023/05/17 03:34:53;;;;;;;6.33;1.60;;;;;;;7.26;100.00;102056.03;5003345;28;20343;-75
2023/05/17 03:37:18;;;;;;;5.13;1.53;;;;;;;8.04;100.00;102218.56;5002030;28;20792;-75
2023/05/17 03:39:44;;;;;;;3.90;1.50;;;;;;;7.88;100.00;102147.94;5001588;28;20189;-75
2023/05/17 03:42:09;;;;;;;2.73;1.30;;;;;;;8.36;100.00;102271.56;5002252;28;20192;-75
2023/05/17 03:44:35;;;;;;;5.63;1.37;;;;;;;7.24;100.00;102144.25;5000745;28;20736;-75
2023/05/17 03:47:00;;;;;;;4.30;1.60;;;;;;;8.11;100.00;102270.44;5006751;28;20188;-75
2023/05/17 03:49:25;;;;;;;7.23;1.73;;;;;;;7.79;100.00;102239.63;5006543;28;20572;-75
2023/05/17 03:51:51;;;;;;;7.90;1.40;;;;;;;7.04;100.00;102115.13;5005179;28;20243;-76
2023/05/17 03:54:16;;;;;;;5.33;1.50;;;;;;;9.11;100.00;102434.66;5006234;28;20192;-75
2023/05/17 03:56:45;;;;;;;6.53;1.97;;;;;;;7.13;100.00;102155.09;5007183;28;20204;-76
2023/05/17 03:59:12;;;;;;;3.70;1.33;;;;;;;7.67;100.00;102280.88;5004289;28;20181;-75
2023/05/17 04:01:38;;;;;;;6.63;1.50;;;;;;;6.82;100.00;102097.59;5002057;28;20468;-75
2023/05/17 04:04:04;;;;;;;6.50;1.90;;;;;;;8.75;100.00;102416.69;4994617;28;20474;-75
2023/05/17 04:06:30;;;;;;;6.43;1.40;;;;;;;7.64;100.00;102230.44;4992635;28;20337;-76
2023/05/17 04:08:58;;;;;;;5.57;1.50;;;;;;;7.91;100.00;102291.06;4997738;28;20451;-75
2023/05/17 04:11:25;;;;;;;5.73;1.53;;;;;;;7.26;100.00;102210.81;4997869;28;20451;-74
2023/05/17 04:13:52;;;;;;;5.40;1.57;;;;;;;8.13;100.00;102301.38;4997052;28;20459;-75
2023/05/17 04:16:17;;;;;;;6.30;1.50;;;;;;;8.76;100.00;102394.28;4994810;28;20455;-76
2023/05/17 04:18:44;;;;;;;5.97;1.73;;;;;;;7.43;100.00;102110.47;5011401;28;20447;-75
2023/05/17 04:21:09;;;;;;;5.87;1.90;;;;;;;7.87;100.00;102279.00;4997392;28;20192;-75
2023/05/17 04:23:35;;;;;;;9.83;2.13;;;;;;;7.91;100.00;102259.84;4994013;28;20988;-75
2023/05/17 04:26:00;;;;;;;7.20;1.77;;;;;;;7.28;100.00;102171.50;4994991;28;20204;-75
2023/05/17 04:28:26;;;;;;;11.83;2.20;;;;;;;8.87;100.00;102403.94;4996124;28;20189;-75
2023/05/17 04:30:51;;;;;;;5.07;1.43;;;;;;;9.42;100.00;102516.34;4996813;28;20256;-75
2023/05/17 04:33:17;;;;;;;10.23;1.87;;;;;;;9.41;100.00;102509.31;4997237;28;20275;-76
2023/05/17 04:35:45;;;;;;;7.60;2.00;;;;;;;8.90;100.00;102454.50;4998910;28;20209;-76
2023/05/17 04:38:11;;;;;;;7.40;2.17;;;;;;;8.34;100.00;102354.63;4998671;28;20193;-76
2023/05/17 04:40:36;;;;;;;6.60;1.90;;;;;;;8.50;100.00;102404.81;5003176;28;20964;-74
2023/05/17 04:43:02;;;;;;;6.00;1.90;;;;;;;7.12;100.00;102140.09;5003194;28;20203;-75
2023/05/17 04:45:28;;;;;;;9.47;2.60;;;;;;;7.12;100.00;102142.75;4998461;28;20327;-76
2023/05/17 04:47:54;;;;;;;8.20;2.17;;;;;;;8.08;100.00;102297.47;4997713;28;20202;-75
2023/05/17 04:50:22;;;;;;;6.40;2.00;;;;;;;7.23;100.00;102163.06;4999624;28;20263;-75
2023/05/17 04:52:47;;;;;;;8.80;2.00;;;;;;;9.09;100.00;102450.88;4993395;28;20566;-76
2023/05/17 04:55:13;;;;;;;6.87;1.90;;;;;;;7.36;100.00;102192.13;4995843;28;20540;-76
2023/05/17 04:57:38;;;;;;;5.87;2.00;;;;;;;7.39;100.00;102211.38;5002025;28;20193;-76
2023/05/17 05:00:06;;;;;;;7.70;2.10;;;;;;;8.21;100.00;102359.44;5005272;28;20195;-75
2023/05/17 05:02:32;;;;;;;8.80;2.43;;;;;;;8.22;100.00;102360.31;5007514;28;20279;-77
2023/05/17 05:04:58;;;;;;;14.77;2.70;;;;;;;8.55;100.00;102431.13;5001888;28;20478;-75
2023/05/17 05:07:23;;;;;;;6.70;2.23;;;;;;;7.22;100.00;102215.59;5005335;28;20803;-75
2023/05/17 05:09:49;;;;;;;7.57;2.00;;;;;;;8.62;100.00;102440.28;5002884;28;20220;-74
2023/05/17 05:12:15;;;;;;;7.30;2.43;;;;;;;8.94;100.00;102498.72;4996885;28;20203;-75
2023/05/17 05:14:40;;;;;;;7.70;2.07;;;;;;;7.54;100.00;102267.81;5002787;28;20586;-76
2023/05/17 05:17:06;;;;;;;11.77;2.57;;;;;;;8.83;100.00;102496.22;5004649;28;20655;-76
2023/05/17 05:19:31;;;;;;;7.97;2.37;;;;;;;7.85;100.00;102327.22;5001895;28;20228;-75
2023/05/17 05:21:57;;;;;;;6.63;2.20;;;;;;;7.66;100.00;102271.16;5005998;28;20201;-75
2023/05/17 05:24:22;;;;;;;5.50;1.67;;;;;;;7.77;100.00;102295.03;5006073;28;20187;-75
2023/05/17 05:26:48;;;;;;;7.97;2.33;;;;;;;8.22;100.00;102368.31;5006332;28;20189;-75
2023/05/17 05:29:13;;;;;;;12.83;2.40;;;;;;;8.49;100.00;102367.53;5005132;28;20205;-75
2023/05/17 05:31:38;;;;;;;6.27;2.40;;;;;;;8.70;100.00;102404.75;5006359;28;20189;-75
2023/05/17 05:34:04;;;;;;;7.57;2.80;;;;;;;7.22;100.00;102220.94;5019841;28;20184;-75
2023/05/17 05:36:30;;;;;;;5.97;2.57;;;;;;;7.93;100.00;102375.44;5003360;28;20605;-75
2023/05/17 05:38:55;;;;;;;9.23;2.07;;;;;;;8.40;100.00;102357.72;5015311;28;20870;-75
2023/05/17 05:41:21;;;;;;;6.60;2.20;;;;;;;8.14;100.00;102398.44;5006896;28;20448;-76
2023/05/17 05:43:46;;;;;;;9.60;2.23;;;;;;;7.57;100.00;102288.88;5006962;28;20223;-77
2023/05/17 05:46:12;;;;;;;9.43;2.27;;;;;;;7.51;100.00;102299.31;5003674;28;20685;-75
2023/05/17 05:48:40;;;;;;;13.97;2.50;;;;;;;8.97;100.00;102509.13;5006344;28;20215;-76
2023/05/17 05:51:06;;;;;;;9.03;1.87;;;;;;;8.40;100.00;102435.28;5006511;28;20225;-75
2023/05/17 05:53:32;;;;;;;8.10;1.90;;;;;;;8.88;100.00;102467.19;5005531;28;20444;-75
2023/05/17 05:55:57;;;;;;;8.20;2.13;;;;;;;7.75;100.00;102291.66;5003785;28;20978;-74
2023/05/17 05:58:23;;;;;;;11.27;2.67;;;;;;;8.87;100.00;102512.81;5007340;28;20262;-74
2023/05/17 06:00:48;;;;;;;10.40;2.10;;;;;;;8.02;100.00;102324.78;5005732;28;20204;-75
2023/05/17 06:03:14;;;;;;;5.53;1.83;;;;;;;7.47;100.00;102264.88;4999614;28;20187;-74
2023/05/17 06:05:40;;;;;;;11.40;3.30;;;;;;;7.48;100.00;102305.78;5000945;28;20705;-75
2023/05/17 06:08:05;;;;;;;13.37;2.43;;;;;;;8.19;100.00;102398.00;5004486;28;20448;-76
2023/05/17 06:10:31;;;;;;;12.63;2.23;;;;;;;8.11;100.00;102388.88;5006413;28;20584;-76
2023/05/17 06:12:57;;;;;;;5.57;1.93;;;;;;;7.22;100.00;102276.16;5007476;28;20228;-75
2023/05/17 06:15:22;;;;;;;8.33;2.23;;;;;;;8.96;100.00;102568.13;4998068;28;21309;-74
2023/05/17 06:17:48;;;;;;;6.73;2.30;;;;;;;8.70;100.00;102525.97;5001736;28;20227;-76
2023/05/17 06:20:15;;;;;;;7.10;1.90;;;;;;;8.69;100.00;102532.31;5005907;28;20757;-75
2023/05/17 06:22:41;;;;;;;5.73;1.77;;;;;;;8.85;100.00;102507.59;5004089;28;20192;-75
2023/05/17 06:25:07;;;;;;;8.57;1.70;;;;;;;8.47;100.00;102471.13;5003413;28;20849;-75
2023/05/17 06:27:33;;;;;;;7.57;1.90;;;;;;;8.62;100.00;102476.84;5002040;28;20440;-75
2023/05/17 06:29:59;;;;;;;6.53;2.33;;;;;;;9.10;100.00;102507.94;5005804;28;21065;-76
2023/05/17 06:32:24;;;;;;;3.77;1.77;;;;;;;7.67;100.00;102340.47;5003377;28;20198;-76
2023/05/17 06:34:50;;;;;;;6.17;1.73;;;;;;;7.68;100.00;102327.94;5003857;28;20514;-74
2023/05/17 06:37:16;;;;;;;6.60;2.23;;;;;;;8.63;100.00;102436.59;5002399;28;21135;-77
2023/05/17 06:39:41;;;;;;;8.47;2.20;;;;;;;9.87;100.00;102678.16;5010834;28;20254;-76
2023/05/17 06:42:07;;;;;;;10.47;2.30;;;;;;;8.57;100.00;102440.69;5006386;28;20185;-75
2023/05/17 06:44:32;;;;;;;9.17;2.40;;;;;;;9.14;100.00;102558.38;5003099;28;20193;-75
2023/05/17 06:46:59;;;;;;;5.43;1.80;;;;;;;7.84;100.00;102317.53;5004128;28;20193;-75
2023/05/17 06:49:25;;;;;;;8.63;1.90;;;;;;;7.61;100.00;102294.81;5015905;28;20305;-75
2023/05/17 06:51:50;;;;;;;4.30;1.93;;;;;;;9.62;100.00;102631.44;5001524;28;20595;-75
2023/05/17 06:54:18;;;;;;;6.57;1.77;;;;;;;7.64;100.00;102354.09;5003921;28;20189;-76
2023/05/17 06:56:44;;;;;;;5.50;1.67;;;;;;;7.34;100.00;102279.50;4999093;28;20888;-75
2023/05/17 06:59:09;;;;;;;5.10;2.60;;;;;;;8.92;100.00;102537.31;4998763;28;20475;-75
2023/05/17 07:01:35;;;;;;;5.33;1.60;;;;;;;8.35;100.00;102443.69;5003980;28;20803;-75
2023/05/17 07:04:00;;;;;;;5.80;1.60;;;;;;;8.07;100.00;102432.94;5005335;28;20196;-74
2023/05/17 07:06:26;;;;;;;7.50;2.40;;;;;;;8.97;100.00;102589.41;5003835;28;20212;-75
2023/05/17 07:08:53;;;;;;;12.63;2.10;;;;;;;10.15;100.00;102721.84;5000073;28;20193;-75
2023/05/17 07:11:18;;;;;;;5.90;1.70;;;;;;;8.68;100.00;102513.72;5005217;28;20220;-74
2023/05/17 07:13:44;;;;;;;10.17;2.30;;;;;;;8.24;100.00;102454.53;5004973;28;20915;-75
2023/05/17 07:16:10;;;;;;;8.83;2.40;;;;;;;8.82;100.00;102499.88;5000195;28;20228;-76
2023/05/17 07:18:35;;;;;;;6.90;2.00;;;;;;;7.83;100.00;102357.72;5001980;28;20962;-74
2023/05/17 07:21:01;;;;;;;5.87;1.93;;;;;;;8.73;100.00;102464.13;5005466;28;20186;-79
2023/05/17 07:23:26;;;;;;;3.77;1.47;;;;;;;8.46;100.00;102482.81;5001427;28;20188;-76
2023/05/17 07:25:51;;;;;;;6.60;1.80;;;;;;;7.71;100.00;102325.00;5001069;28;25276;-75
2023/05/17 07:28:17;;;;;;;5.83;2.00;;;;;;;10.14;100.00;102755.03;5000939;28;20622;-78
2023/05/17 07:30:42;;;;;;;5.53;1.90;;;;;;;8.53;100.00;102502.63;5002682;28;20613;-77
2023/05/17 07:33:08;;;;;;;8.80;1.60;;;;;;;7.73;100.00;102347.06;5005902;28;20239;-74
2023/05/17 07:35:34;;;;;;;8.60;2.37;;;;;;;8.32;100.00;102497.44;4999667;28;20259;-76
2023/05/17 07:37:59;;;;;;;7.00;2.50;;;;;;;7.30;100.00;102297.66;5005668;28;20189;-75
2023/05/17 07:40:25;;;;;;;9.93;2.50;;;;;;;9.22;100.00;102633.41;5016725;28;20240;-75
2023/05/17 07:42:50;;;;;;;10.70;2.07;;;;;;;8.79;100.00;102537.63;5007874;28;20181;-76
2023/05/17 07:45:16;;;;;;;7.93;2.10;;;;;;;8.90;100.00;102523.22;4999176;28;20283;-75
2023/05/17 07:47:41;;;;;;;7.30;2.00;;;;;;;9.43;100.00;102625.19;5008392;28;20223;-75
2023/05/17 07:50:07;;;;;;;6.07;1.67;;;;;;;8.16;100.00;102420.53;5005567;28;20727;-74
2023/05/17 07:52:33;;;;;;;6.10;1.50;;;;;;;8.78;100.00;102509.19;4998871;28;20196;-75
2023/05/17 07:54:58;;;;;;;8.83;2.23;;;;;;;8.94;100.00;102546.00;5007646;28;20204;-77
2023/05/17 07:57:24;;;;;;;9.90;1.53;;;;;;;8.33;100.00;102446.53;5008811;28;20184;-75
2023/05/17 07:59:49;;;;;;;5.90;1.80;;;;;;;8.59;100.00;102492.22;5007710;28;20239;-75
2023/05/17 08:02:14;;;;;;;6.20;1.83;;;;;;;9.05;100.00;102553.88;5007480;28;20556;-76
2023/05/17 08:04:40;;;;;;;8.67;1.70;;;;;;;8.29;100.00;102447.78;5008576;28;20232;-75
2023/05/17 08:07:06;;;;;;;8.40;1.77;;;;;;;9.53;100.00;102602.88;5000249;28;20177;-75
2023/05/17 08:09:31;;;;;;;6.27;1.53;;;;;;;8.83;100.00;102513.13;5005822;28;20584;-74
2023/05/17 08:11:57;;;;;;;3.43;1.10;;;;;;;8.76;100.00;102538.75;5002687;28;20796;-76
2023/05/17 08:14:23;;;;;;;6.13;1.50;;;;;;;8.14;100.00;102404.63;4994755;28;20196;-74
2023/05/17 08:16:50;;;;;;;6.07;1.70;;;;;;;8.27;100.00;102462.28;5001534;28;20993;-78
2023/05/17 08:19:16;;;;;;;6.80;1.60;;;;;;;8.25;100.00;102432.19;5015635;28;20472;-76
2023/05/17 08:21:43;;;;;;;4.90;1.67;;;;;;;9.49;100.00;102670.13;5001044;28;20443;-75
2023/05/17 08:24:08;;;;;;;5.17;1.50;;;;;;;8.08;100.00;102434.59;4998971;28;20767;-75
2023/05/17 08:26:34;;;;;;;7.10;1.43;;;;;;;9.63;100.00;102665.25;5003769;28;21092;-76
2023/05/17 08:29:01;;;;;;;15.73;2.40;;;;;;;8.29;100.00;102466.50;4999130;28;20216;-76
2023/05/17 08:31:27;;;;;;;5.17;1.53;;;;;;;8.28;100.00;102439.91;5006020;28;20232;-74
2023/05/17 08:33:53;;;;;;;5.83;1.97;;;;;;;10.44;100.00;102791.44;5002646;28;20457;-76
2023/05/17 08:36:19;;;;;;;6.80;1.63;;;;;;;9.04;100.00;102542.31;5008372;28;20455;-75
2023/05/17 08:38:45;;;;;;;8.20;1.47;;;;;;;9.23;100.00;102545.94;5008173;28;20185;-74
2023/05/17 08:41:11;;;;;;;4.43;1.37;;;;;;;9.72;100.00;102653.69;5005188;28;20280;-75
2023/05/17 08:43:37;;;;;;;2.90;1.40;;;;;;;8.54;100.00;102429.44;5000852;28;20452;-74
2023/05/17 08:46:03;;;;;;;3.93;1.60;;;;;;;9.73;100.00;102628.56;5004279;28;20471;-75
2023/05/17 08:48:35;;;;;;;4.20;1.33;;;;;;;10.04;100.00;102652.34;5004891;28;20225;-76
2023/05/17 08:51:02;;;;;;;2.67;1.17;;;;;;;9.86;100.00;102665.72;5016127;28;20201;-76
2023/05/17 08:53:27;;;;;;;3.73;1.03;;;;;;;8.38;100.00;102401.47;5015139;28;20471;-74
2023/05/17 08:55:59;;;;;;;3.87;1.80;;;;;;;8.42;100.00;102404.72;5015717;28;20473;-78
2023/05/17 08:58:28;;;;;;;5.53;1.63;;;;;;;8.31;100.00;102399.53;5002691;28;20204;-73
2023/05/17 09:00:56;;;;;;;7.03;1.90;;;;;;;7.99;100.00;102504.09;5006806;28;20440;-74
2023/05/17 09:03:22;;;;;;;6.00;1.83;;;;;;;8.04;100.00;102443.03;5006104;28;20452;-78
2023/05/17 09:05:52;;;;;;;10.70;2.17;;;;;;;7.73;100.00;102437.88;5018121;28;20463;-76
2023/05/17 09:08:20;;;;;;;5.10;1.43;;;;;;;8.03;100.00;102508.16;5004009;28;20447;-76
2023/05/17 09:10:46;;;;;;;6.70;2.03;;;;;;;10.16;100.00;102890.66;5001405;28;20472;-77
2023/05/17 09:13:12;;;;;;;3.30;1.30;;;;;;;8.13;100.00;102450.22;5006319;28;20501;-75
2023/05/17 09:15:40;;;;;;;7.80;1.73;;;;;;;10.59;100.00;102878.50;5004019;28;20296;-76
2023/05/17 09:18:11;;;;;;;3.77;1.37;;;;;;;8.33;100.00;102457.22;5004874;28;20806;-77
2023/05/17 09:20:38;;;;;;;6.87;2.03;;;;;;;8.95;100.00;102545.06;4999821;28;20439;-76
2023/05/17 09:23:05;;;;;;;4.50;2.40;;;;;;;9.67;100.00;102667.50;5003128;28;20447;-75
2023/05/17 09:25:31;;;;;;;5.87;1.80;;;;;;;8.37;100.00;102482.66;5005394;28;20518;-77
2023/05/17 09:28:06;;;;;;;5.33;1.40;;;;;;;10.43;100.00;102867.56;5003374;28;20845;-78
2023/05/17 09:30:36;;;;;;;8.30;1.93;;;;;;;8.90;100.00;102595.47;5019853;28;20580;-76
2023/05/17 09:33:09;;;;;;;5.00;1.47;;;;;;;8.36;100.00;102466.75;5005127;28;20443;-76
2023/05/17 09:35:37;;;;;;;4.57;1.43;;;;;;;8.43;100.00;102475.94;4998963;28;20521;-76
2023/05/17 09:38:11;;;;;;;8.23;1.57;;;;;;;10.70;100.00;102864.03;5001451;28;20455;-76
2023/05/17 09:40:43;;;;;;;7.90;1.97;;;;;;;9.33;100.00;102588.72;5004957;28;20440;-76
2023/05/17 09:43:10;;;;;;;6.87;1.40;;;;;;;9.85;100.00;102669.41;5003195;28;20447;-78
2023/05/17 09:45:36;;;;;;;6.27;1.80;;;;;;;9.15;100.00;102580.63;5019330;28;20498;-76
2023/05/17 09:48:18;;;;;;;6.87;1.90;;;;;;;10.15;100.00;102736.13;5003482;28;20928;-77
2023/05/17 09:50:53;;;;;;;5.57;2.07;;;;;;;9.47;100.00;102572.16;5004583;28;20464;-76
2023/05/17 09:53:32;;;;;;;6.17;1.93;;;;;;;9.41;100.00;102552.16;5006723;28;20536;-77
2023/05/17 09:56:01;;;;;;;4.93;1.40;;;;;;;9.77;100.00;102631.78;5006928;28;20457;-76
2023/05/17 09:58:30;;;;;;;10.57;2.13;;;;;;;9.95;100.00;102627.28;5005413;28;20444;-78
2023/05/17 10:01:02;;;;;;;9.40;2.10;;;;;;;9.50;100.00;102548.59;5008537;28;20423;-77
2023/05/17 10:03:36;;;;;;;6.83;1.40;;;;;;;9.73;100.00;102591.03;5008343;28;20466;-78
2023/05/17 10:06:05;;;;;;;7.87;1.87;;;;;;;9.10;100.00;102473.97;5007475;28;20913;-76
2023/05/17 10:08:32;;;;;;;5.33;1.70;;;;;;;9.83;100.00;102644.56;5009222;28;20415;-78
2023/05/17 10:11:06;;;;;;;7.13;1.60;;;;;;;9.04;100.00;102581.63;5009755;28;20555;-77
2023/05/17 10:14:09;;;;;;;5.33;1.70;;;;;;;11.06;100.00;102875.69;5009821;28;20419;-77
2023/05/17 10:16:36;;;;;;;6.93;2.53;;;;;;;9.78;100.00;102689.72;4995492;28;20456;-75
2023/05/17 10:19:02;;;;;;;8.77;1.90;;;;;;;9.56;100.00;102670.38;5009589;28;20502;-79
2023/05/17 10:21:30;;;;;;;8.03;2.10;;;;;;;10.13;100.00;102715.81;5008418;28;20428;-75
2023/05/17 10:23:57;;;;;;;4.83;1.60;;;;;;;9.27;100.00;102547.31;5004836;28;20943;-76
2023/05/17 10:26:23;;;;;;;4.13;1.73;;;;;;;9.85;100.00;102661.34;5009004;28;20491;-76
2023/05/17 10:28:52;;;;;;;4.53;1.50;;;;;;;9.33;100.00;102580.69;5008700;28;20428;-76
2023/05/17 10:31:18;;;;;;;15.90;3.50;;;;;;;10.74;100.00;102784.06;5001447;28;20551;-75
2023/05/17 10:33:49;;;;;;;6.20;1.77;;;;;;;9.54;100.00;102511.63;5007908;28;20439;-76
2023/05/17 10:36:16;;;;;;;9.17;2.07;;;;;;;10.92;100.00;102733.06;5006522;28;20460;-76
2023/05/17 10:38:42;;;;;;;3.93;1.50;;;;;;;9.70;100.00;102471.59;4999168;28;20804;-74
2023/05/17 10:41:10;;;;;;;7.80;1.50;;;;;;;10.22;100.00;102591.53;5005814;28;20509;-76
2023/05/17 10:43:38;;;;;;;5.40;1.40;;;;;;;9.78;100.00;102548.56;4999909;28;20654;-76
2023/05/17 10:46:13;;;;;;;5.50;1.80;;;;;;;9.77;100.00;102619.22;5001858;28;20519;-76
2023/05/17 10:48:39;;;;;;;5.40;1.47;;;;;;;9.83;100.00;102663.34;5001386;28;20530;-75
2023/05/17 10:51:06;;;;;;;10.87;1.93;;;;;;;10.23;100.00;102723.78;4999969;28;20491;-74
2023/05/17 10:53:31;;;;;;;10.47;2.47;;;;;;;9.16;100.00;102540.31;5018893;28;20185;-74
2023/05/17 10:55:57;;;;;;;11.37;3.07;;;;;;;8.74;100.00;102527.38;5004341;28;20470;-77
2023/05/17 10:58:26;;;;;;;10.63;2.40;;;;;;;9.12;100.00;102501.44;5003120;28;20613;-75
2023/05/17 11:00:53;;;;;;;10.10;2.50;;;;;;;9.70;100.00;102674.41;5000141;28;20179;-75
2023/05/17 11:03:21;;;;;;;7.27;2.93;;;;;;;11.00;100.00;102903.16;5011863;28;20809;-75
2023/05/17 11:06:08;;;;;;;5.40;1.80;;;;;;;11.01;100.00;102867.22;4996358;28;20548;-75
2023/05/17 11:08:34;;;;;;;6.07;2.00;;;;;;;8.94;100.00;102527.28;5001434;28;20432;-76
2023/05/17 11:11:11;;;;;;;5.10;2.00;;;;;;;8.94;100.00;102495.16;5005481;28;20475;-76
2023/05/17 11:13:54;;;;;;;6.00;2.30;;;;;;;11.26;100.00;102891.66;5004904;28;20226;-76
2023/05/17 11:16:22;;;;;;;7.10;2.00;;;;;;;9.09;100.00;102509.78;5004167;28;20451;-76
2023/05/17 11:18:53;;;;;;;5.27;1.90;;;;;;;11.35;100.00;102889.91;4999335;28;20471;-76
2023/05/17 11:21:20;;;;;;;9.20;1.80;;;;;;;10.19;100.00;102672.31;5000092;28;20459;-78